Arlington, Ohio
Current Conditions -  °F | °C
As of 8:53 AM on Monday 20 Oct 2014 (Local Time) from KFDY Reporting Station
Overcast Overcast  
Wind Chill: 10°   Ceiling: 8000
Heat Index: 10°   Visibility: 10mi
Dew Point:   Wind: 10mph
Humidity: 77%   Direction: 200°SSW
Pressure: 29.91"   Gusts: NA
Location:  40.89°N, 83.65°W
Report Text: KFDY 201253Z AUTO 20009KT 10SM OVC080 10/06 A2991 RMK AO2 RAB1154E29 SLP126 P0001 T01000061
Loading
Personal Weather Stations






























Interactive Weather Map
Tropical Storm Tracking
New forecast layout! Learn more

10-Day Weather Forecast

Advertisements
Track Severe Weather on mobile